sensor_id;sensor_type;location;lat;lon;timestamp;P1;durP1;ratioP1;P2;durP2;ratioP2
27505;SDS011;14939;43.596;1.320;2023-05-07T00:00:03;21.10;;;12.73;;
27505;SDS011;14939;43.596;1.320;2023-05-07T00:02:33;19.17;;;11.63;;
27505;SDS011;14939;43.596;1.320;2023-05-07T00:04:59;20.08;;;11.48;;
27505;SDS011;14939;43.596;1.320;2023-05-07T00:07:24;22.67;;;11.65;;
27505;SDS011;14939;43.596;1.320;2023-05-07T00:09:50;22.42;;;12.48;;
27505;SDS011;14939;43.596;1.320;2023-05-07T00:12:16;22.08;;;11.32;;
27505;SDS011;14939;43.596;1.320;2023-05-07T00:14:41;20.85;;;10.45;;
27505;SDS011;14939;43.596;1.320;2023-05-07T00:17:07;17.63;;;10.93;;
27505;SDS011;14939;43.596;1.320;2023-05-07T00:19:33;20.98;;;10.88;;
27505;SDS011;14939;43.596;1.320;2023-05-07T00:21:58;15.63;;;10.35;;
27505;SDS011;14939;43.596;1.320;2023-05-07T00:24:24;18.35;;;9.43;;
27505;SDS011;14939;43.596;1.320;2023-05-07T00:26:50;20.02;;;10.98;;
27505;SDS011;14939;43.596;1.320;2023-05-07T00:29:16;16.83;;;10.48;;
27505;SDS011;14939;43.596;1.320;2023-05-07T00:31:41;16.50;;;10.07;;
27505;SDS011;14939;43.596;1.320;2023-05-07T00:34:07;20.40;;;10.75;;
27505;SDS011;14939;43.596;1.320;2023-05-07T00:36:33;17.00;;;11.07;;
27505;SDS011;14939;43.596;1.320;2023-05-07T00:38:59;24.10;;;12.90;;
27505;SDS011;14939;43.596;1.320;2023-05-07T00:41:26;13.57;;;9.52;;
27505;SDS011;14939;43.596;1.320;2023-05-07T00:43:52;16.08;;;8.43;;
27505;SDS011;14939;43.596;1.320;2023-05-07T00:46:19;18.85;;;9.25;;
27505;SDS011;14939;43.596;1.320;2023-05-07T00:48:46;17.67;;;8.23;;
27505;SDS011;14939;43.596;1.320;2023-05-07T00:51:12;13.73;;;8.23;;
27505;SDS011;14939;43.596;1.320;2023-05-07T00:53:38;17.10;;;8.20;;
27505;SDS011;14939;43.596;1.320;2023-05-07T00:56:04;14.60;;;8.50;;
27505;SDS011;14939;43.596;1.320;2023-05-07T00:58:31;18.00;;;7.82;;
27505;SDS011;14939;43.596;1.320;2023-05-07T01:00:58;17.35;;;8.32;;
27505;SDS011;14939;43.596;1.320;2023-05-07T01:03:24;12.85;;;7.78;;
27505;SDS011;14939;43.596;1.320;2023-05-07T01:05:50;20.65;;;8.30;;
27505;SDS011;14939;43.596;1.320;2023-05-07T01:08:17;16.42;;;7.70;;
27505;SDS011;14939;43.596;1.320;2023-05-07T01:10:44;19.98;;;7.53;;
27505;SDS011;14939;43.596;1.320;2023-05-07T01:13:11;17.98;;;7.93;;
27505;SDS011;14939;43.596;1.320;2023-05-07T01:15:39;16.08;;;7.30;;
27505;SDS011;14939;43.596;1.320;2023-05-07T01:18:06;13.75;;;6.88;;
27505;SDS011;14939;43.596;1.320;2023-05-07T01:20:32;18.00;;;6.97;;
27505;SDS011;14939;43.596;1.320;2023-05-07T01:22:58;24.23;;;7.82;;
27505;SDS011;14939;43.596;1.320;2023-05-07T01:25:25;15.00;;;8.07;;
27505;SDS011;14939;43.596;1.320;2023-05-07T01:27:51;16.13;;;8.43;;
27505;SDS011;14939;43.596;1.320;2023-05-07T01:30:16;18.88;;;7.10;;
27505;SDS011;14939;43.596;1.320;2023-05-07T01:35:32;21.30;;;6.65;;
27505;SDS011;14939;43.596;1.320;2023-05-07T01:38:00;11.97;;;6.20;;
27505;SDS011;14939;43.596;1.320;2023-05-07T01:40:29;17.30;;;6.05;;
27505;SDS011;14939;43.596;1.320;2023-05-07T01:42:55;14.57;;;5.50;;
27505;SDS011;14939;43.596;1.320;2023-05-07T01:45:21;16.52;;;6.32;;
27505;SDS011;14939;43.596;1.320;2023-05-07T01:47:50;21.02;;;6.78;;
27505;SDS011;14939;43.596;1.320;2023-05-07T01:50:18;19.48;;;7.13;;
27505;SDS011;14939;43.596;1.320;2023-05-07T01:52:45;13.48;;;5.57;;
27505;SDS011;14939;43.596;1.320;2023-05-07T01:55:12;12.45;;;5.60;;
27505;SDS011;14939;43.596;1.320;2023-05-07T01:57:38;18.83;;;6.60;;
27505;SDS011;14939;43.596;1.320;2023-05-07T02:00:04;14.43;;;5.85;;
27505;SDS011;14939;43.596;1.320;2023-05-07T02:02:30;16.02;;;5.55;;
27505;SDS011;14939;43.596;1.320;2023-05-07T02:04:56;13.77;;;5.80;;
27505;SDS011;14939;43.596;1.320;2023-05-07T02:07:22;15.25;;;5.60;;
27505;SDS011;14939;43.596;1.320;2023-05-07T02:09:47;19.88;;;6.25;;
27505;SDS011;14939;43.596;1.320;2023-05-07T02:12:13;12.25;;;5.78;;
27505;SDS011;14939;43.596;1.320;2023-05-07T02:14:39;17.27;;;5.70;;
27505;SDS011;14939;43.596;1.320;2023-05-07T02:17:04;19.95;;;6.35;;
27505;SDS011;14939;43.596;1.320;2023-05-07T02:19:30;15.48;;;5.85;;
27505;SDS011;14939;43.596;1.320;2023-05-07T02:21:56;15.88;;;5.40;;
27505;SDS011;14939;43.596;1.320;2023-05-07T02:24:22;17.40;;;5.47;;
27505;SDS011;14939;43.596;1.320;2023-05-07T02:26:47;17.67;;;5.53;;
27505;SDS011;14939;43.596;1.320;2023-05-07T02:29:13;17.10;;;5.43;;
27505;SDS011;14939;43.596;1.320;2023-05-07T02:31:39;21.05;;;5.47;;
27505;SDS011;14939;43.596;1.320;2023-05-07T02:34:04;15.13;;;5.65;;
27505;SDS011;14939;43.596;1.320;2023-05-07T02:36:31;16.80;;;6.30;;
27505;SDS011;14939;43.596;1.320;2023-05-07T02:38:57;18.00;;;7.00;;
27505;SDS011;14939;43.596;1.320;2023-05-07T02:41:23;22.92;;;7.32;;
27505;SDS011;14939;43.596;1.320;2023-05-07T02:43:48;17.90;;;6.70;;
27505;SDS011;14939;43.596;1.320;2023-05-07T02:46:14;17.75;;;5.88;;
27505;SDS011;14939;43.596;1.320;2023-05-07T02:48:40;19.92;;;6.20;;
27505;SDS011;14939;43.596;1.320;2023-05-07T02:51:06;17.73;;;6.30;;
27505;SDS011;14939;43.596;1.320;2023-05-07T02:53:32;17.58;;;5.53;;
27505;SDS011;14939;43.596;1.320;2023-05-07T02:55:58;19.63;;;5.60;;
27505;SDS011;14939;43.596;1.320;2023-05-07T02:58:25;21.88;;;6.28;;
27505;SDS011;14939;43.596;1.320;2023-05-07T03:00:51;15.25;;;5.57;;
27505;SDS011;14939;43.596;1.320;2023-05-07T03:03:17;12.70;;;5.82;;
27505;SDS011;14939;43.596;1.320;2023-05-07T03:05:43;16.40;;;6.40;;
27505;SDS011;14939;43.596;1.320;2023-05-07T03:08:09;21.33;;;8.52;;
27505;SDS011;14939;43.596;1.320;2023-05-07T03:10:35;21.88;;;7.07;;
27505;SDS011;14939;43.596;1.320;2023-05-07T03:13:02;23.25;;;6.93;;
27505;SDS011;14939;43.596;1.320;2023-05-07T03:15:28;20.98;;;7.47;;
27505;SDS011;14939;43.596;1.320;2023-05-07T03:17:53;27.30;;;9.98;;
27505;SDS011;14939;43.596;1.320;2023-05-07T03:20:19;19.77;;;8.52;;
27505;SDS011;14939;43.596;1.320;2023-05-07T03:22:45;24.20;;;9.77;;
27505;SDS011;14939;43.596;1.320;2023-05-07T03:25:11;18.23;;;6.70;;
27505;SDS011;14939;43.596;1.320;2023-05-07T03:27:37;18.42;;;6.07;;
27505;SDS011;14939;43.596;1.320;2023-05-07T03:30:03;16.90;;;5.60;;
27505;SDS011;14939;43.596;1.320;2023-05-07T03:32:29;19.58;;;5.82;;
27505;SDS011;14939;43.596;1.320;2023-05-07T03:34:55;19.55;;;5.90;;
27505;SDS011;14939;43.596;1.320;2023-05-07T03:37:20;17.45;;;6.05;;
27505;SDS011;14939;43.596;1.320;2023-05-07T03:39:46;21.77;;;5.93;;
27505;SDS011;14939;43.596;1.320;2023-05-07T03:42:13;23.85;;;5.88;;
27505;SDS011;14939;43.596;1.320;2023-05-07T03:44:39;19.77;;;6.07;;
27505;SDS011;14939;43.596;1.320;2023-05-07T03:47:05;19.45;;;5.50;;
27505;SDS011;14939;43.596;1.320;2023-05-07T03:49:31;19.88;;;5.55;;
27505;SDS011;14939;43.596;1.320;2023-05-07T03:51:56;15.88;;;4.95;;
27505;SDS011;14939;43.596;1.320;2023-05-07T03:54:22;16.35;;;5.13;;
27505;SDS011;14939;43.596;1.320;2023-05-07T03:56:48;16.83;;;5.78;;
27505;SDS011;14939;43.596;1.320;2023-05-07T03:59:13;19.75;;;5.10;;
27505;SDS011;14939;43.596;1.320;2023-05-07T04:01:39;19.33;;;5.45;;
27505;SDS011;14939;43.596;1.320;2023-05-07T04:04:05;21.20;;;5.45;;
27505;SDS011;14939;43.596;1.320;2023-05-07T04:06:31;17.33;;;5.40;;
27505;SDS011;14939;43.596;1.320;2023-05-07T04:08:57;13.60;;;5.00;;
27505;SDS011;14939;43.596;1.320;2023-05-07T04:11:22;16.92;;;5.35;;
27505;SDS011;14939;43.596;1.320;2023-05-07T04:13:48;15.77;;;5.40;;
27505;SDS011;14939;43.596;1.320;2023-05-07T04:16:14;17.52;;;5.43;;
27505;SDS011;14939;43.596;1.320;2023-05-07T04:18:40;15.73;;;5.22;;
27505;SDS011;14939;43.596;1.320;2023-05-07T04:21:13;14.55;;;5.18;;
27505;SDS011;14939;43.596;1.320;2023-05-07T04:23:39;15.70;;;4.85;;
27505;SDS011;14939;43.596;1.320;2023-05-07T04:26:05;14.98;;;5.15;;
27505;SDS011;14939;43.596;1.320;2023-05-07T04:28:30;21.80;;;5.18;;
27505;SDS011;14939;43.596;1.320;2023-05-07T04:30:56;16.08;;;4.40;;
27505;SDS011;14939;43.596;1.320;2023-05-07T04:33:23;17.25;;;4.55;;
27505;SDS011;14939;43.596;1.320;2023-05-07T04:35:49;17.85;;;5.22;;
27505;SDS011;14939;43.596;1.320;2023-05-07T04:38:14;17.60;;;6.00;;
27505;SDS011;14939;43.596;1.320;2023-05-07T04:40:40;19.17;;;6.32;;
27505;SDS011;14939;43.596;1.320;2023-05-07T04:43:06;19.70;;;5.55;;
27505;SDS011;14939;43.596;1.320;2023-05-07T04:45:34;15.52;;;6.10;;
27505;SDS011;14939;43.596;1.320;2023-05-07T04:48:05;16.23;;;6.38;;
27505;SDS011;14939;43.596;1.320;2023-05-07T04:50:31;19.35;;;7.15;;
27505;SDS011;14939;43.596;1.320;2023-05-07T04:52:56;21.73;;;7.05;;
27505;SDS011;14939;43.596;1.320;2023-05-07T04:55:22;15.95;;;5.75;;
27505;SDS011;14939;43.596;1.320;2023-05-07T04:57:48;19.17;;;5.85;;
27505;SDS011;14939;43.596;1.320;2023-05-07T05:00:13;18.92;;;6.18;;
27505;SDS011;14939;43.596;1.320;2023-05-07T05:02:40;19.40;;;6.13;;
27505;SDS011;14939;43.596;1.320;2023-05-07T05:05:06;18.67;;;5.32;;
27505;SDS011;14939;43.596;1.320;2023-05-07T05:07:32;17.50;;;4.90;;
27505;SDS011;14939;43.596;1.320;2023-05-07T05:09:58;19.67;;;5.05;;
27505;SDS011;14939;43.596;1.320;2023-05-07T05:12:24;16.55;;;5.10;;
27505;SDS011;14939;43.596;1.320;2023-05-07T05:14:50;16.75;;;4.93;;
27505;SDS011;14939;43.596;1.320;2023-05-07T05:17:15;19.17;;;5.00;;
27505;SDS011;14939;43.596;1.320;2023-05-07T05:19:41;16.63;;;4.55;;
27505;SDS011;14939;43.596;1.320;2023-05-07T05:22:07;14.32;;;5.10;;
27505;SDS011;14939;43.596;1.320;2023-05-07T05:24:32;20.88;;;5.47;;
27505;SDS011;14939;43.596;1.320;2023-05-07T05:26:58;23.70;;;4.93;;
27505;SDS011;14939;43.596;1.320;2023-05-07T05:29:26;18.88;;;5.22;;
27505;SDS011;14939;43.596;1.320;2023-05-07T05:31:52;17.15;;;5.15;;
27505;SDS011;14939;43.596;1.320;2023-05-07T05:34:18;16.23;;;5.13;;
27505;SDS011;14939;43.596;1.320;2023-05-07T05:36:47;20.75;;;5.80;;
27505;SDS011;14939;43.596;1.320;2023-05-07T05:39:12;22.00;;;5.97;;
27505;SDS011;14939;43.596;1.320;2023-05-07T05:41:39;17.77;;;5.40;;
27505;SDS011;14939;43.596;1.320;2023-05-07T05:44:04;19.48;;;4.68;;
27505;SDS011;14939;43.596;1.320;2023-05-07T05:46:30;19.05;;;5.05;;
27505;SDS011;14939;43.596;1.320;2023-05-07T05:48:56;15.13;;;4.82;;
27505;SDS011;14939;43.596;1.320;2023-05-07T05:51:22;16.25;;;4.70;;
27505;SDS011;14939;43.596;1.320;2023-05-07T05:53:48;17.08;;;5.13;;
27505;SDS011;14939;43.596;1.320;2023-05-07T05:56:15;24.95;;;5.75;;
27505;SDS011;14939;43.596;1.320;2023-05-07T05:58:41;18.90;;;5.30;;
27505;SDS011;14939;43.596;1.320;2023-05-07T06:01:07;19.80;;;5.07;;
27505;SDS011;14939;43.596;1.320;2023-05-07T06:03:33;19.13;;;5.00;;
27505;SDS011;14939;43.596;1.320;2023-05-07T06:05:58;16.95;;;4.85;;
27505;SDS011;14939;43.596;1.320;2023-05-07T06:08:25;22.13;;;5.35;;
27505;SDS011;14939;43.596;1.320;2023-05-07T06:10:54;17.25;;;4.88;;
27505;SDS011;14939;43.596;1.320;2023-05-07T06:13:20;17.52;;;5.22;;
27505;SDS011;14939;43.596;1.320;2023-05-07T06:15:45;19.83;;;4.63;;
27505;SDS011;14939;43.596;1.320;2023-05-07T06:18:11;18.45;;;5.00;;
27505;SDS011;14939;43.596;1.320;2023-05-07T06:20:37;17.02;;;4.82;;
27505;SDS011;14939;43.596;1.320;2023-05-07T06:23:02;16.00;;;5.05;;
27505;SDS011;14939;43.596;1.320;2023-05-07T06:25:28;19.25;;;4.53;;
27505;SDS011;14939;43.596;1.320;2023-05-07T06:27:54;22.13;;;5.35;;
27505;SDS011;14939;43.596;1.320;2023-05-07T06:30:19;20.92;;;5.63;;
27505;SDS011;14939;43.596;1.320;2023-05-07T06:32:45;18.80;;;6.25;;
27505;SDS011;14939;43.596;1.320;2023-05-07T06:35:11;19.10;;;6.22;;
27505;SDS011;14939;43.596;1.320;2023-05-07T06:37:36;20.70;;;6.38;;
27505;SDS011;14939;43.596;1.320;2023-05-07T06:40:04;16.42;;;5.60;;
27505;SDS011;14939;43.596;1.320;2023-05-07T06:42:31;19.23;;;6.05;;
27505;SDS011;14939;43.596;1.320;2023-05-07T06:45:00;21.23;;;6.25;;
27505;SDS011;14939;43.596;1.320;2023-05-07T06:47:27;20.60;;;5.13;;
27505;SDS011;14939;43.596;1.320;2023-05-07T06:49:53;16.60;;;5.47;;
27505;SDS011;14939;43.596;1.320;2023-05-07T06:52:19;18.75;;;4.82;;
27505;SDS011;14939;43.596;1.320;2023-05-07T06:54:44;21.52;;;5.40;;
27505;SDS011;14939;43.596;1.320;2023-05-07T06:57:10;19.38;;;5.30;;
27505;SDS011;14939;43.596;1.320;2023-05-07T06:59:36;19.02;;;5.10;;
27505;SDS011;14939;43.596;1.320;2023-05-07T07:02:01;21.13;;;5.05;;
27505;SDS011;14939;43.596;1.320;2023-05-07T07:04:27;16.35;;;5.45;;
27505;SDS011;14939;43.596;1.320;2023-05-07T07:06:53;16.58;;;4.88;;
27505;SDS011;14939;43.596;1.320;2023-05-07T07:09:19;14.20;;;4.63;;
27505;SDS011;14939;43.596;1.320;2023-05-07T07:11:45;17.92;;;5.45;;
27505;SDS011;14939;43.596;1.320;2023-05-07T07:14:11;16.48;;;4.65;;
27505;SDS011;14939;43.596;1.320;2023-05-07T07:16:36;18.17;;;5.07;;
27505;SDS011;14939;43.596;1.320;2023-05-07T07:19:02;16.33;;;4.90;;
27505;SDS011;14939;43.596;1.320;2023-05-07T07:21:28;19.35;;;4.93;;
27505;SDS011;14939;43.596;1.320;2023-05-07T07:23:53;16.05;;;5.13;;
27505;SDS011;14939;43.596;1.320;2023-05-07T07:26:19;19.67;;;5.00;;
27505;SDS011;14939;43.596;1.320;2023-05-07T07:28:45;15.38;;;4.47;;
27505;SDS011;14939;43.596;1.320;2023-05-07T07:31:12;16.85;;;5.32;;
27505;SDS011;14939;43.596;1.320;2023-05-07T07:33:37;17.33;;;4.72;;
27505;SDS011;14939;43.596;1.320;2023-05-07T07:36:04;16.23;;;5.22;;
27505;SDS011;14939;43.596;1.320;2023-05-07T07:38:30;15.35;;;4.95;;
27505;SDS011;14939;43.596;1.320;2023-05-07T07:40:56;16.13;;;5.22;;
27505;SDS011;14939;43.596;1.320;2023-05-07T07:43:22;18.23;;;4.93;;
27505;SDS011;14939;43.596;1.320;2023-05-07T07:45:47;14.35;;;3.88;;
27505;SDS011;14939;43.596;1.320;2023-05-07T07:48:13;13.43;;;4.40;;
27505;SDS011;14939;43.596;1.320;2023-05-07T07:50:39;13.02;;;4.05;;
27505;SDS011;14939;43.596;1.320;2023-05-07T07:53:05;14.60;;;4.25;;
27505;SDS011;14939;43.596;1.320;2023-05-07T07:55:31;21.20;;;4.53;;
27505;SDS011;14939;43.596;1.320;2023-05-07T07:57:57;14.95;;;4.40;;
27505;SDS011;14939;43.596;1.320;2023-05-07T08:00:22;17.35;;;4.32;;
27505;SDS011;14939;43.596;1.320;2023-05-07T08:02:48;15.05;;;4.50;;
27505;SDS011;14939;43.596;1.320;2023-05-07T08:05:14;14.77;;;3.88;;
27505;SDS011;14939;43.596;1.320;2023-05-07T08:07:40;16.52;;;3.67;;
27505;SDS011;14939;43.596;1.320;2023-05-07T08:10:06;13.95;;;3.95;;
27505;SDS011;14939;43.596;1.320;2023-05-07T08:12:32;14.45;;;3.92;;
27505;SDS011;14939;43.596;1.320;2023-05-07T08:14:58;12.60;;;3.60;;
27505;SDS011;14939;43.596;1.320;2023-05-07T08:17:24;17.05;;;4.72;;
27505;SDS011;14939;43.596;1.320;2023-05-07T08:19:49;16.75;;;3.97;;
27505;SDS011;14939;43.596;1.320;2023-05-07T08:22:15;16.95;;;3.72;;
27505;SDS011;14939;43.596;1.320;2023-05-07T08:24:43;12.95;;;3.90;;
27505;SDS011;14939;43.596;1.320;2023-05-07T08:27:08;11.23;;;3.70;;
27505;SDS011;14939;43.596;1.320;2023-05-07T08:29:34;11.73;;;3.78;;
27505;SDS011;14939;43.596;1.320;2023-05-07T08:32:00;13.18;;;3.40;;
27505;SDS011;14939;43.596;1.320;2023-05-07T08:34:26;13.55;;;3.83;;
27505;SDS011;14939;43.596;1.320;2023-05-07T08:36:51;14.63;;;3.70;;
27505;SDS011;14939;43.596;1.320;2023-05-07T08:39:17;15.20;;;3.88;;
27505;SDS011;14939;43.596;1.320;2023-05-07T08:41:46;13.35;;;3.67;;
27505;SDS011;14939;43.596;1.320;2023-05-07T08:44:16;16.25;;;3.83;;
27505;SDS011;14939;43.596;1.320;2023-05-07T08:46:45;13.23;;;3.90;;
27505;SDS011;14939;43.596;1.320;2023-05-07T08:49:13;15.23;;;3.90;;
27505;SDS011;14939;43.596;1.320;2023-05-07T08:51:39;14.43;;;4.03;;
27505;SDS011;14939;43.596;1.320;2023-05-07T08:54:07;15.20;;;3.88;;
27505;SDS011;14939;43.596;1.320;2023-05-07T08:56:34;13.38;;;3.83;;
27505;SDS011;14939;43.596;1.320;2023-05-07T08:58:59;15.43;;;3.72;;
27505;SDS011;14939;43.596;1.320;2023-05-07T09:01:25;16.15;;;3.72;;
27505;SDS011;14939;43.596;1.320;2023-05-07T09:03:51;12.73;;;4.20;;
27505;SDS011;14939;43.596;1.320;2023-05-07T09:06:18;13.00;;;3.50;;
27505;SDS011;14939;43.596;1.320;2023-05-07T09:08:50;20.50;;;4.40;;
27505;SDS011;14939;43.596;1.320;2023-05-07T09:11:19;12.30;;;3.63;;
27505;SDS011;14939;43.596;1.320;2023-05-07T09:13:49;16.50;;;3.60;;
27505;SDS011;14939;43.596;1.320;2023-05-07T09:16:20;15.48;;;4.35;;
27505;SDS011;14939;43.596;1.320;2023-05-07T09:18:46;13.55;;;3.58;;
27505;SDS011;14939;43.596;1.320;2023-05-07T09:21:16;15.93;;;3.83;;
27505;SDS011;14939;43.596;1.320;2023-05-07T09:23:43;12.13;;;3.47;;
27505;SDS011;14939;43.596;1.320;2023-05-07T09:26:08;15.13;;;3.95;;
27505;SDS011;14939;43.596;1.320;2023-05-07T09:28:43;14.95;;;3.67;;
27505;SDS011;14939;43.596;1.320;2023-05-07T09:31:09;13.38;;;3.55;;
27505;SDS011;14939;43.596;1.320;2023-05-07T09:33:36;12.52;;;3.55;;
27505;SDS011;14939;43.596;1.320;2023-05-07T09:36:02;12.73;;;3.67;;
27505;SDS011;14939;43.596;1.320;2023-05-07T09:38:32;16.45;;;3.65;;
27505;SDS011;14939;43.596;1.320;2023-05-07T09:41:06;12.98;;;3.90;;
27505;SDS011;14939;43.596;1.320;2023-05-07T09:43:33;10.48;;;3.38;;
27505;SDS011;14939;43.596;1.320;2023-05-07T09:46:18;10.95;;;3.58;;
27505;SDS011;14939;43.596;1.320;2023-05-07T09:48:50;16.80;;;4.05;;
27505;SDS011;14939;43.596;1.320;2023-05-07T09:51:23;13.43;;;3.67;;
27505;SDS011;14939;43.596;1.320;2023-05-07T09:53:53;14.50;;;3.90;;
27505;SDS011;14939;43.596;1.320;2023-05-07T09:56:19;16.13;;;4.10;;
27505;SDS011;14939;43.596;1.320;2023-05-07T09:58:46;14.13;;;4.22;;
27505;SDS011;14939;43.596;1.320;2023-05-07T10:01:12;16.38;;;4.20;;
27505;SDS011;14939;43.596;1.320;2023-05-07T10:03:41;13.95;;;3.97;;
27505;SDS011;14939;43.596;1.320;2023-05-07T10:06:09;14.10;;;4.60;;
27505;SDS011;14939;43.596;1.320;2023-05-07T10:08:37;19.80;;;4.70;;
27505;SDS011;14939;43.596;1.320;2023-05-07T10:11:03;17.67;;;4.97;;
27505;SDS011;14939;43.596;1.320;2023-05-07T10:13:31;9.82;;;3.90;;
27505;SDS011;14939;43.596;1.320;2023-05-07T10:16:06;16.23;;;4.80;;
27505;SDS011;14939;43.596;1.320;2023-05-07T10:18:32;16.30;;;4.38;;
27505;SDS011;14939;43.596;1.320;2023-05-07T10:21:08;16.20;;;4.63;;
27505;SDS011;14939;43.596;1.320;2023-05-07T10:23:38;20.45;;;4.30;;
27505;SDS011;14939;43.596;1.320;2023-05-07T10:26:05;16.67;;;4.22;;
27505;SDS011;14939;43.596;1.320;2023-05-07T10:28:34;17.00;;;4.20;;
27505;SDS011;14939;43.596;1.320;2023-05-07T10:31:08;18.27;;;4.97;;
27505;SDS011;14939;43.596;1.320;2023-05-07T10:33:43;18.48;;;5.97;;
27505;SDS011;14939;43.596;1.320;2023-05-07T10:36:11;18.08;;;5.45;;
27505;SDS011;14939;43.596;1.320;2023-05-07T10:38:37;17.13;;;4.68;;
27505;SDS011;14939;43.596;1.320;2023-05-07T10:41:05;16.83;;;4.75;;
27505;SDS011;14939;43.596;1.320;2023-05-07T10:43:38;17.48;;;4.90;;
27505;SDS011;14939;43.596;1.320;2023-05-07T10:46:09;17.00;;;4.40;;
27505;SDS011;14939;43.596;1.320;2023-05-07T10:51:34;15.02;;;4.10;;
27505;SDS011;14939;43.596;1.320;2023-05-07T10:56:39;15.60;;;4.40;;
27505;SDS011;14939;43.596;1.320;2023-05-07T11:01:52;15.25;;;3.47;;
27505;SDS011;14939;43.596;1.320;2023-05-07T11:04:24;14.88;;;3.53;;
27505;SDS011;14939;43.596;1.320;2023-05-07T11:12:58;15.85;;;3.42;;
27505;SDS011;14939;43.596;1.320;2023-05-07T11:15:08;11.25;;;3.13;;
27505;SDS011;14939;43.596;1.320;2023-05-07T11:17:51;10.70;;;3.47;;
27505;SDS011;14939;43.596;1.320;2023-05-07T11:20:18;15.20;;;3.95;;
27505;SDS011;14939;43.596;1.320;2023-05-07T11:22:45;15.93;;;4.70;;
27505;SDS011;14939;43.596;1.320;2023-05-07T11:25:14;14.52;;;3.25;;
27505;SDS011;14939;43.596;1.320;2023-05-07T11:27:44;14.27;;;3.25;;
27505;SDS011;14939;43.596;1.320;2023-05-07T11:30:10;10.77;;;2.90;;
27505;SDS011;14939;43.596;1.320;2023-05-07T11:32:43;11.95;;;2.88;;
27505;SDS011;14939;43.596;1.320;2023-05-07T11:35:11;13.07;;;3.08;;
27505;SDS011;14939;43.596;1.320;2023-05-07T11:37:39;13.05;;;3.10;;
27505;SDS011;14939;43.596;1.320;2023-05-07T11:40:08;11.18;;;4.22;;
27505;SDS011;14939;43.596;1.320;2023-05-07T11:42:39;10.65;;;2.78;;
27505;SDS011;14939;43.596;1.320;2023-05-07T11:45:06;10.68;;;3.00;;
27505;SDS011;14939;43.596;1.320;2023-05-07T11:47:33;10.18;;;2.67;;
27505;SDS011;14939;43.596;1.320;2023-05-07T11:50:03;13.52;;;3.30;;
27505;SDS011;14939;43.596;1.320;2023-05-07T11:52:31;15.98;;;3.20;;
27505;SDS011;14939;43.596;1.320;2023-05-07T11:54:57;12.07;;;3.47;;
27505;SDS011;14939;43.596;1.320;2023-05-07T11:57:25;11.13;;;3.05;;
27505;SDS011;14939;43.596;1.320;2023-05-07T11:59:58;9.48;;;3.10;;
27505;SDS011;14939;43.596;1.320;2023-05-07T12:02:27;19.60;;;3.80;;
27505;SDS011;14939;43.596;1.320;2023-05-07T12:04:53;11.88;;;3.20;;
27505;SDS011;14939;43.596;1.320;2023-05-07T12:07:20;13.93;;;3.40;;
27505;SDS011;14939;43.596;1.320;2023-05-07T12:09:47;12.02;;;3.35;;
27505;SDS011;14939;43.596;1.320;2023-05-07T12:12:13;11.82;;;3.33;;
27505;SDS011;14939;43.596;1.320;2023-05-07T12:14:41;12.02;;;3.15;;
27505;SDS011;14939;43.596;1.320;2023-05-07T12:17:08;11.70;;;2.97;;
27505;SDS011;14939;43.596;1.320;2023-05-07T12:19:35;10.75;;;2.50;;
27505;SDS011;14939;43.596;1.320;2023-05-07T12:22:02;10.20;;;2.72;;
27505;SDS011;14939;43.596;1.320;2023-05-07T12:24:28;12.38;;;3.25;;
27505;SDS011;14939;43.596;1.320;2023-05-07T12:26:54;10.07;;;2.85;;
27505;SDS011;14939;43.596;1.320;2023-05-07T12:29:23;9.40;;;2.80;;
27505;SDS011;14939;43.596;1.320;2023-05-07T12:31:52;14.70;;;2.63;;
27505;SDS011;14939;43.596;1.320;2023-05-07T12:34:18;11.30;;;2.47;;
27505;SDS011;14939;43.596;1.320;2023-05-07T12:36:43;9.90;;;2.72;;
27505;SDS011;14939;43.596;1.320;2023-05-07T12:39:09;9.30;;;2.45;;
27505;SDS011;14939;43.596;1.320;2023-05-07T12:41:53;11.75;;;3.20;;
27505;SDS011;14939;43.596;1.320;2023-05-07T12:44:25;18.63;;;3.20;;
27505;SDS011;14939;43.596;1.320;2023-05-07T12:46:54;9.60;;;2.38;;
27505;SDS011;14939;43.596;1.320;2023-05-07T12:49:20;11.07;;;2.67;;
27505;SDS011;14939;43.596;1.320;2023-05-07T12:51:48;7.53;;;2.30;;
27505;SDS011;14939;43.596;1.320;2023-05-07T12:54:30;10.20;;;2.65;;
27505;SDS011;14939;43.596;1.320;2023-05-07T12:57:03;9.43;;;2.15;;
27505;SDS011;14939;43.596;1.320;2023-05-07T12:59:37;6.38;;;1.90;;
27505;SDS011;14939;43.596;1.320;2023-05-07T13:02:04;8.75;;;2.33;;
27505;SDS011;14939;43.596;1.320;2023-05-07T13:04:30;10.18;;;2.65;;
27505;SDS011;14939;43.596;1.320;2023-05-07T13:06:56;9.32;;;2.50;;
27505;SDS011;14939;43.596;1.320;2023-05-07T13:09:22;8.07;;;2.70;;
27505;SDS011;14939;43.596;1.320;2023-05-07T13:11:47;8.70;;;2.35;;
27505;SDS011;14939;43.596;1.320;2023-05-07T13:14:13;7.78;;;2.30;;
27505;SDS011;14939;43.596;1.320;2023-05-07T13:16:39;9.80;;;2.15;;
27505;SDS011;14939;43.596;1.320;2023-05-07T13:19:04;5.95;;;1.85;;
27505;SDS011;14939;43.596;1.320;2023-05-07T13:21:30;7.80;;;1.90;;
27505;SDS011;14939;43.596;1.320;2023-05-07T13:23:58;8.25;;;2.22;;
27505;SDS011;14939;43.596;1.320;2023-05-07T13:26:24;5.28;;;1.88;;
27505;SDS011;14939;43.596;1.320;2023-05-07T13:28:51;8.25;;;2.70;;
27505;SDS011;14939;43.596;1.320;2023-05-07T13:31:19;9.32;;;2.25;;
27505;SDS011;14939;43.596;1.320;2023-05-07T13:33:46;8.80;;;1.98;;
27505;SDS011;14939;43.596;1.320;2023-05-07T13:36:11;10.25;;;2.20;;
27505;SDS011;14939;43.596;1.320;2023-05-07T13:38:37;8.15;;;1.95;;
27505;SDS011;14939;43.596;1.320;2023-05-07T13:41:04;7.88;;;1.92;;
27505;SDS011;14939;43.596;1.320;2023-05-07T13:43:29;9.25;;;2.50;;
27505;SDS011;14939;43.596;1.320;2023-05-07T13:45:56;8.30;;;2.28;;
27505;SDS011;14939;43.596;1.320;2023-05-07T13:48:22;8.05;;;2.50;;
27505;SDS011;14939;43.596;1.320;2023-05-07T13:50:48;6.72;;;2.28;;
27505;SDS011;14939;43.596;1.320;2023-05-07T13:53:13;7.68;;;2.08;;
27505;SDS011;14939;43.596;1.320;2023-05-07T13:55:42;6.38;;;1.90;;
27505;SDS011;14939;43.596;1.320;2023-05-07T13:58:08;8.27;;;2.15;;
27505;SDS011;14939;43.596;1.320;2023-05-07T14:00:34;9.35;;;2.20;;
27505;SDS011;14939;43.596;1.320;2023-05-07T14:03:00;8.77;;;2.45;;
27505;SDS011;14939;43.596;1.320;2023-05-07T14:05:26;7.75;;;2.30;;
27505;SDS011;14939;43.596;1.320;2023-05-07T14:07:53;7.68;;;2.30;;
27505;SDS011;14939;43.596;1.320;2023-05-07T14:10:20;10.55;;;2.10;;
27505;SDS011;14939;43.596;1.320;2023-05-07T14:12:46;8.18;;;2.25;;
27505;SDS011;14939;43.596;1.320;2023-05-07T14:15:12;6.75;;;2.10;;
27505;SDS011;14939;43.596;1.320;2023-05-07T14:17:37;8.65;;;1.92;;
27505;SDS011;14939;43.596;1.320;2023-05-07T14:20:03;7.82;;;2.10;;
27505;SDS011;14939;43.596;1.320;2023-05-07T14:22:31;7.88;;;2.10;;
27505;SDS011;14939;43.596;1.320;2023-05-07T14:24:57;7.30;;;2.15;;
27505;SDS011;14939;43.596;1.320;2023-05-07T14:27:22;7.57;;;2.30;;
27505;SDS011;14939;43.596;1.320;2023-05-07T14:29:48;7.05;;;1.92;;
27505;SDS011;14939;43.596;1.320;2023-05-07T14:32:16;7.30;;;1.90;;
27505;SDS011;14939;43.596;1.320;2023-05-07T14:34:43;7.40;;;2.20;;
27505;SDS011;14939;43.596;1.320;2023-05-07T14:37:09;7.10;;;2.28;;
27505;SDS011;14939;43.596;1.320;2023-05-07T14:39:35;7.10;;;1.80;;
27505;SDS011;14939;43.596;1.320;2023-05-07T14:42:01;9.65;;;2.22;;
27505;SDS011;14939;43.596;1.320;2023-05-07T14:44:27;10.45;;;2.22;;
27505;SDS011;14939;43.596;1.320;2023-05-07T14:46:52;8.63;;;2.00;;
27505;SDS011;14939;43.596;1.320;2023-05-07T14:49:18;7.18;;;1.98;;